createdAt,value
2023-01-13T00:00:52.112Z,99885.59
2023-01-13T00:03:55.815Z,99880.09
2023-01-13T00:06:57.399Z,99872.66
2023-01-13T00:09:58.894Z,99868.97
2023-01-13T00:13:01.243Z,99867.91
2023-01-13T00:16:05.278Z,99856.78
2023-01-13T00:19:08.212Z,99850.19
2023-01-13T00:22:09.859Z,99846.09
2023-01-13T00:25:11.649Z,99847.13
2023-01-13T00:28:13.206Z,99850.69
2023-01-13T00:31:17.202Z,99852.03
2023-01-13T00:34:20.267Z,99841.81
2023-01-13T00:37:22.130Z,99836.03
2023-01-13T00:40:23.918Z,99836.22
2023-01-13T00:43:26.604Z,99837.00
2023-01-13T00:46:28.201Z,99834.88
2023-01-13T00:49:31.117Z,99822.50
2023-01-13T00:52:33.589Z,99818.16
2023-01-13T00:55:35.148Z,99816.88
2023-01-13T00:58:37.112Z,99801.94
2023-01-13T01:01:39.116Z,99800.84
2023-01-13T01:04:42.154Z,99799.78
2023-01-13T01:07:43.918Z,99788.91
2023-01-13T01:10:45.641Z,99795.22
2023-01-13T01:13:47.912Z,99796.22
2023-01-13T01:16:49.519Z,99798.09
2023-01-13T01:19:52.484Z,99794.13
2023-01-13T01:22:54.000Z,99792.03
2023-01-13T01:25:59.436Z,99790.31
2023-01-13T01:29:02.160Z,99795.84
2023-01-13T01:32:03.809Z,99793.69
2023-01-13T01:35:07.469Z,99806.72
2023-01-13T01:38:09.087Z,99808.72
2023-01-13T01:41:18.201Z,99807.13
2023-01-13T01:44:51.861Z,99806.91
2023-01-13T01:47:57.506Z,99798.59
2023-01-13T01:51:01.484Z,99795.59
2023-01-13T01:54:06.376Z,99793.88
2023-01-13T01:57:09.713Z,99794.00
2023-01-13T02:00:12.813Z,99792.69
2023-01-13T02:03:16.110Z,99788.75
2023-01-13T02:06:19.230Z,99785.34
2023-01-13T02:09:20.805Z,99785.09
2023-01-13T02:12:29.515Z,99781.38
2023-01-13T02:15:38.640Z,99776.16
2023-01-13T02:18:53.453Z,99773.53
2023-01-13T02:22:15.931Z,99758.41
2023-01-13T02:25:44.429Z,99762.50
2023-01-13T02:29:24.004Z,99763.28
2023-01-13T02:32:33.552Z,99753.56
2023-01-13T02:35:40.510Z,99751.44
2023-01-13T02:38:51.371Z,99751.06
2023-01-13T02:42:16.381Z,99745.56
2023-01-13T02:45:23.937Z,99741.88
2023-01-13T02:48:29.829Z,99751.81
2023-01-13T02:51:32.895Z,99736.22
2023-01-13T02:54:37.239Z,99737.00
2023-01-13T02:57:40.896Z,99728.06
2023-01-13T03:00:43.998Z,99734.78
2023-01-13T03:03:47.073Z,99731.84
2023-01-13T03:06:56.423Z,99724.78
2023-01-13T03:10:07.290Z,99727.41
2023-01-13T03:13:21.079Z,99723.72
2023-01-13T03:16:31.663Z,99719.25
2023-01-13T03:19:44.256Z,99719.78
2023-01-13T03:22:54.741Z,99718.72
2023-01-13T03:26:04.310Z,99702.44
2023-01-13T03:29:11.914Z,99709.41
2023-01-13T03:32:20.203Z,99700.34
2023-01-13T03:35:28.039Z,99699.56
2023-01-13T03:38:33.251Z,99707.56
2023-01-13T03:41:38.683Z,99705.88
2023-01-13T03:44:46.697Z,99707.69
2023-01-13T03:47:52.934Z,99695.66
2023-01-13T03:51:00.130Z,99697.31
2023-01-13T03:54:05.094Z,99691.31
2023-01-13T03:57:11.672Z,99683.31
2023-01-13T04:00:15.506Z,99680.94
2023-01-13T04:03:25.152Z,99672.81
2023-01-13T04:06:48.616Z,99664.81
2023-01-13T04:09:53.874Z,99667.19
2023-01-13T04:13:00.664Z,99665.22
2023-01-13T04:16:02.678Z,99662.16
2023-01-13T04:19:04.432Z,99664.53
2023-01-13T04:22:07.495Z,99656.53
2023-01-13T04:25:10.238Z,99661.91
2023-01-13T04:28:12.494Z,99656.66
2023-01-13T04:31:14.224Z,99662.16
2023-01-13T04:34:15.902Z,99677.00
2023-01-13T04:37:18.850Z,99659.84
2023-01-13T04:40:20.443Z,99656.97
2023-01-13T04:43:22.172Z,99661.69
2023-01-13T04:46:23.975Z,99656.06
2023-01-13T04:49:25.660Z,99661.41
2023-01-13T04:52:28.577Z,99659.06
2023-01-13T04:55:31.940Z,99654.09
2023-01-13T04:58:33.552Z,99640.47
2023-01-13T05:01:35.347Z,99644.41
2023-01-13T05:04:37.045Z,99631.56
2023-01-13T05:07:39.988Z,99634.44
2023-01-13T05:10:41.611Z,99624.19
2023-01-13T05:14:02.106Z,99634.44
2023-01-13T05:17:03.879Z,99619.72
2023-01-13T05:20:07.381Z,99620.00
2023-01-13T05:23:28.913Z,99618.03
2023-01-13T05:26:30.482Z,99611.59
2023-01-13T05:29:32.056Z,99609.88
2023-01-13T05:32:33.767Z,99610.78
2023-01-13T05:35:37.856Z,99607.50
2023-01-13T05:38:42.075Z,99608.69
2023-01-13T05:42:02.317Z,99606.44
2023-01-13T05:45:04.695Z,99598.47
2023-01-13T05:48:06.296Z,99603.84
2023-01-13T05:51:10.463Z,99600.16
2023-01-13T05:54:13.601Z,99611.03
2023-01-13T05:57:15.369Z,99614.44
2023-01-13T06:00:18.300Z,99619.69
2023-01-13T06:03:20.215Z,99620.75
2023-01-13T06:06:21.872Z,99633.91
2023-01-13T06:09:24.793Z,99639.81
2023-01-13T06:12:26.576Z,99652.91
2023-01-13T06:15:28.169Z,99649.09
2023-01-13T06:18:29.863Z,99644.66
2023-01-13T06:21:33.127Z,99662.78
2023-01-13T06:24:36.451Z,99671.28
2023-01-13T06:27:38.558Z,99691.00
2023-01-13T06:30:45.347Z,99694.91
2023-01-13T06:33:50.674Z,99693.81
2023-01-13T06:36:54.822Z,99700.19
2023-01-13T06:40:01.985Z,99715.22
2023-01-13T06:43:16.931Z,99733.59
2023-01-13T06:46:18.851Z,99756.56
2023-01-13T06:49:21.716Z,99759.75
2023-01-13T06:52:24.317Z,99767.28
2023-01-13T06:55:27.263Z,99782.88
2023-01-13T06:58:28.961Z,99790.66
2023-01-13T07:01:30.714Z,99787.06
2023-01-13T07:04:32.338Z,99759.31
2023-01-13T07:07:34.068Z,99770.03
2023-01-13T07:10:37.525Z,99770.31
2023-01-13T07:13:57.872Z,99758.16
2023-01-13T07:16:59.519Z,99747.69
2023-01-13T07:20:01.130Z,99741.84
2023-01-13T07:23:02.774Z,99762.41
2023-01-13T07:26:07.283Z,99764.53
2023-01-13T07:29:09.046Z,99772.53
2023-01-13T07:32:10.715Z,99785.13
2023-01-13T07:35:12.365Z,99802.88
2023-01-13T07:38:14.048Z,99813.91
2023-01-13T07:41:35.382Z,99791.16
2023-01-13T07:44:36.981Z,99787.81
2023-01-13T07:47:39.398Z,99794.63
2023-01-13T07:50:43.921Z,99798.03
2023-01-13T07:53:45.791Z,99781.47
2023-01-13T07:56:48.915Z,99797.94
2023-01-13T07:59:50.604Z,99833.03
2023-01-13T08:02:52.270Z,99833.78
2023-01-13T08:05:53.912Z,99805.50
2023-01-13T08:08:55.754Z,99808.31
2023-01-13T08:12:17.103Z,99811.69
2023-01-13T08:15:18.752Z,99855.84
2023-01-13T08:18:22.237Z,99870.94
2023-01-13T08:21:24.214Z,99884.16
2023-01-13T08:24:25.910Z,99889.53
2023-01-13T08:27:28.865Z,99884.91
2023-01-13T08:30:30.972Z,99882.28
2023-01-13T08:33:33.044Z,99897.53
2023-01-13T08:36:34.713Z,99899.06
2023-01-13T08:39:36.491Z,99904.13
2023-01-13T08:42:39.600Z,99925.81
2023-01-13T08:45:41.577Z,99926.13
2023-01-13T08:48:43.686Z,99927.34
2023-01-13T08:51:45.425Z,99933.03
2023-01-13T08:54:47.198Z,99932.25
2023-01-13T08:57:50.134Z,99933.03
2023-01-13T09:00:51.912Z,99928.44
2023-01-13T09:03:54.280Z,99915.97
2023-01-13T09:06:56.613Z,99928.28
2023-01-13T09:09:58.291Z,99932.25
2023-01-13T09:13:13.482Z,99922.72
2023-01-13T09:16:15.190Z,99938.41
2023-01-13T09:19:16.954Z,99943.81
2023-01-13T09:22:19.903Z,99956.53
2023-01-13T09:25:21.605Z,99963.63
2023-01-13T09:28:24.597Z,99957.19
2023-01-13T09:31:26.268Z,99961.50
2023-01-13T09:34:46.900Z,99957.03
2023-01-13T09:37:48.540Z,99956.25
2023-01-13T09:40:50.281Z,99970.56
2023-01-13T09:43:59.284Z,99969.00
2023-01-13T09:47:06.909Z,99982.25
2023-01-13T09:50:21.948Z,99991.28
2023-01-13T09:53:28.918Z,99986.84
2023-01-13T09:56:30.528Z,99984.84
2023-01-13T09:59:36.382Z,99982.88
2023-01-13T10:03:01.754Z,100001.44
2023-01-13T10:06:11.265Z,100007.91
2023-01-13T10:09:15.902Z,100001.28
2023-01-13T10:12:41.497Z,99993.84
2023-01-13T10:15:53.718Z,100009.16
2023-01-13T10:19:04.753Z,99981.72
2023-01-13T10:22:20.869Z,99962.25
2023-01-13T10:25:31.240Z,99953.47
2023-01-13T10:28:32.815Z,99945.81
2023-01-13T10:31:35.775Z,99937.59
2023-01-13T10:34:48.631Z,99950.16
2023-01-13T10:37:57.705Z,99945.19
2023-01-13T10:41:00.841Z,99938.47
2023-01-13T10:44:04.541Z,99926.78
2023-01-13T10:47:20.545Z,99932.94
2023-01-13T10:50:27.363Z,99936.16
2023-01-13T10:53:30.910Z,99946.78
2023-01-13T10:56:33.921Z,99937.56
2023-01-13T10:59:35.481Z,99940.22
2023-01-13T11:02:38.668Z,99945.06
2023-01-13T11:05:40.793Z,99930.41
2023-01-13T11:08:45.433Z,99928.28
2023-01-13T11:11:49.522Z,99936.47
2023-01-13T11:14:52.082Z,99930.47
2023-01-13T11:18:01.363Z,99907.81
2023-01-13T11:21:07.968Z,99937.22
2023-01-13T11:24:15.421Z,99933.09
2023-01-13T11:27:23.877Z,99932.88
2023-01-13T11:30:32.933Z,99958.66
2023-01-13T11:33:42.743Z,99936.06
2023-01-13T11:36:49.728Z,99940.63
2023-01-13T11:39:56.757Z,99929.69
2023-01-13T11:43:04.486Z,99945.78
2023-01-13T11:46:06.531Z,99949.28
2023-01-13T11:49:18.205Z,99953.41
2023-01-13T11:52:27.997Z,99986.19
2023-01-13T11:55:39.816Z,99979.13
2023-01-13T11:59:04.646Z,99973.50
2023-01-13T12:02:21.900Z,99964.13
2023-01-13T12:05:33.630Z,99966.34
2023-01-13T12:08:53.944Z,99973.25
2023-01-13T12:12:27.707Z,99952.19
2023-01-13T12:15:55.773Z,99958.59
2023-01-13T12:19:20.560Z,99959.41
2023-01-13T12:22:28.459Z,99983.78
2023-01-13T12:25:36.930Z,99974.34
2023-01-13T12:28:46.539Z,99974.94
2023-01-13T12:31:51.323Z,99989.19
2023-01-13T12:35:14.571Z,99972.53
2023-01-13T12:38:23.017Z,99970.84
2023-01-13T12:41:36.883Z,99950.78
2023-01-13T12:45:05.607Z,99959.91
2023-01-13T12:48:27.330Z,99959.91
2023-01-13T12:51:35.585Z,99955.44
2023-01-13T12:55:15.865Z,99947.69
2023-01-13T12:58:18.118Z,99943.03
2023-01-13T13:01:35.449Z,99928.56
2023-01-13T13:04:48.074Z,99931.66
2023-01-13T13:07:53.103Z,99930.66
2023-01-13T13:11:41.771Z,99939.00
2023-01-13T13:15:03.886Z,99945.00
2023-01-13T13:18:27.443Z,99955.56
2023-01-13T13:22:16.296Z,99946.03
2023-01-13T13:25:26.047Z,99956.94
2023-01-13T13:28:35.253Z,99975.78
2023-01-13T13:31:53.867Z,99971.25
2023-01-13T13:35:07.738Z,99979.53
2023-01-13T13:38:50.161Z,99980.41
2023-01-13T13:42:18.646Z,99989.16
2023-01-13T13:45:42.648Z,99995.09
2023-01-13T13:48:52.177Z,99993.41
2023-01-13T13:51:59.495Z,99997.66
2023-01-13T13:55:08.719Z,99992.75
2023-01-13T13:58:17.906Z,100005.53
2023-01-13T14:01:26.038Z,100013.63
2023-01-13T14:04:30.147Z,100029.44
2023-01-13T14:07:31.805Z,100014.53
2023-01-13T14:10:36.265Z,100024.81
2023-01-13T14:13:38.089Z,100035.41
2023-01-13T14:16:41.383Z,100055.63
2023-01-13T14:19:45.611Z,100060.06
2023-01-13T14:22:48.213Z,100087.84
2023-01-13T14:25:51.402Z,100098.44
2023-01-13T14:28:54.167Z,100096.94
2023-01-13T14:31:57.613Z,100098.94
2023-01-13T14:34:59.334Z,100099.81
2023-01-13T14:38:02.236Z,100092.53
2023-01-13T14:41:15.728Z,100093.03
2023-01-13T14:44:25.310Z,100092.94
2023-01-13T14:47:31.492Z,100112.25
2023-01-13T14:50:34.648Z,100109.97
2023-01-13T14:53:39.973Z,100098.34
2023-01-13T14:56:49.850Z,100112.75
2023-01-13T14:59:59.095Z,100110.03
2023-01-13T15:03:07.917Z,100127.78
2023-01-13T15:06:22.440Z,100134.59
2023-01-13T15:09:27.214Z,100138.59
2023-01-13T15:12:35.776Z,100142.94
2023-01-13T15:15:39.697Z,100150.78
2023-01-13T15:18:43.016Z,100145.41
2023-01-13T15:21:44.643Z,100139.84
2023-01-13T15:24:46.823Z,100156.19
2023-01-13T15:27:51.639Z,100165.28
2023-01-13T15:30:54.270Z,100177.75
2023-01-13T15:33:58.966Z,100175.16
2023-01-13T15:37:00.508Z,100188.22
2023-01-13T15:40:02.259Z,100174.03
2023-01-13T15:43:22.474Z,100161.84
2023-01-13T15:46:39.879Z,100174.03
2023-01-13T15:49:44.856Z,100172.34
2023-01-13T15:52:46.319Z,100173.44
2023-01-13T15:55:52.583Z,100180.19
2023-01-13T15:58:54.841Z,100179.56
2023-01-13T16:01:56.391Z,100185.34
2023-01-13T16:04:59.361Z,100180.94
2023-01-13T16:08:01.060Z,100186.00
2023-01-13T16:11:03.417Z,100189.25
2023-01-13T16:14:05.263Z,100186.63
2023-01-13T16:17:14.665Z,100200.34
2023-01-13T16:20:18.692Z,100199.88
2023-01-13T16:23:20.741Z,100209.28
2023-01-13T16:26:23.932Z,100230.09
2023-01-13T16:29:25.549Z,100224.03
2023-01-13T16:32:27.303Z,100233.28
2023-01-13T16:35:32.117Z,100239.44
2023-01-13T16:38:33.689Z,100253.63
2023-01-13T16:41:35.465Z,100259.94
2023-01-13T16:44:37.263Z,100262.84
2023-01-13T16:47:39.798Z,100285.06
2023-01-13T16:50:42.723Z,100272.13
2023-01-13T16:53:44.445Z,100302.19
2023-01-13T16:56:46.286Z,100287.06
2023-01-13T16:59:47.999Z,100293.09
2023-01-13T17:02:50.869Z,100308.50
2023-01-13T17:05:54.101Z,100294.00
2023-01-13T17:09:00.676Z,100296.47
2023-01-13T17:12:02.315Z,100308.50
2023-01-13T17:15:04.840Z,100317.28
2023-01-13T17:18:06.503Z,100314.03
2023-01-13T17:21:09.458Z,100322.06
2023-01-13T17:24:12.262Z,100311.41
2023-01-13T17:27:14.053Z,100321.44
2023-01-13T17:30:16.758Z,100323.00
2023-01-13T17:33:18.564Z,100330.53
2023-01-13T17:36:21.596Z,100339.63
2023-01-13T17:39:24.965Z,100337.75
2023-01-13T17:42:29.881Z,100344.69
2023-01-13T17:45:31.517Z,100341.63
2023-01-13T17:48:33.945Z,100350.13
2023-01-13T17:51:36.961Z,100377.38
2023-01-13T17:54:39.781Z,100381.84
2023-01-13T17:57:41.448Z,100374.16
2023-01-13T18:00:43.190Z,100380.31
2023-01-13T18:03:45.675Z,100382.63
2023-01-13T18:06:48.899Z,100377.03
2023-01-13T18:09:50.674Z,100375.69
2023-01-13T18:12:52.494Z,100395.88
2023-01-13T18:16:02.946Z,100402.47
2023-01-13T18:19:23.279Z,100401.25
2023-01-13T18:22:45.378Z,100410.34
2023-01-13T18:26:06.061Z,100408.94
2023-01-13T18:29:07.647Z,100416.34
2023-01-13T18:32:09.597Z,100430.19
2023-01-13T18:35:11.592Z,100429.41
2023-01-13T18:38:25.132Z,100421.22
2023-01-13T18:41:45.739Z,100411.34
2023-01-13T18:44:47.443Z,100406.09
2023-01-13T18:47:49.308Z,100427.41
2023-01-13T18:50:50.904Z,100432.28
2023-01-13T18:53:53.939Z,100415.03
2023-01-13T18:56:56.869Z,100436.78
2023-01-13T18:59:58.395Z,100436.78
2023-01-13T19:06:13.763Z,100442.00
2023-01-13T19:09:17.698Z,100449.84
2023-01-13T19:12:25.960Z,100440.69
2023-01-13T19:15:27.685Z,100443.16
2023-01-13T19:18:29.307Z,100453.84
2023-01-13T19:21:30.894Z,100463.56
2023-01-13T19:24:34.185Z,100461.88
2023-01-13T19:27:36.489Z,100474.41
2023-01-13T19:30:38.071Z,100482.75
2023-01-13T19:33:40.121Z,100476.09
2023-01-13T19:36:41.771Z,100490.69
2023-01-13T19:39:44.906Z,100495.75
2023-01-13T19:43:05.297Z,100495.13
2023-01-13T19:46:07.192Z,100497.00
2023-01-13T19:49:10.438Z,100514.88
2023-01-13T19:52:12.377Z,100516.44
2023-01-13T19:55:15.324Z,100524.28
2023-01-13T19:58:18.918Z,100541.03
2023-01-13T20:01:21.300Z,100538.91
2023-01-13T20:04:33.533Z,100532.16
2023-01-13T20:07:35.202Z,100532.41
2023-01-13T20:10:40.569Z,100528.94
2023-01-13T20:13:42.201Z,100518.44
2023-01-13T20:16:44.121Z,100522.75
2023-01-13T20:19:46.017Z,100541.84
2023-01-13T20:22:49.580Z,100545.25
2023-01-13T20:25:52.500Z,100540.78
2023-01-13T20:28:54.081Z,100531.53
2023-01-13T20:31:55.953Z,100551.69
2023-01-13T20:34:57.905Z,100538.91
2023-01-13T20:37:59.539Z,100539.94
2023-01-13T20:41:22.895Z,100553.03
2023-01-13T20:44:24.411Z,100550.94
2023-01-13T20:47:26.632Z,100552.88
2023-01-13T20:50:28.408Z,100557.47
2023-01-13T20:53:30.059Z,100557.22
2023-01-13T20:56:33.298Z,100563.63
2023-01-13T20:59:36.011Z,100569.81
2023-01-13T21:02:39.601Z,100565.81
2023-01-13T21:05:41.307Z,100564.72
2023-01-13T21:08:42.925Z,100572.06
2023-01-13T21:12:04.460Z,100569.28
2023-01-13T21:15:21.545Z,100576.84
2023-01-13T21:18:42.095Z,100581.75
2023-01-13T21:21:43.968Z,100583.78
2023-01-13T21:24:45.639Z,100582.25
2023-01-13T21:27:48.538Z,100585.38
2023-01-13T21:30:52.683Z,100591.63
2023-01-13T21:33:54.734Z,100595.06
2023-01-13T21:36:56.301Z,100597.94
2023-01-13T21:39:57.903Z,100601.16
2023-01-13T21:43:21.116Z,100601.31
2023-01-13T21:46:42.079Z,100605.16
2023-01-13T21:49:44.588Z,100609.94
2023-01-13T21:52:47.845Z,100610.38
2023-01-13T21:55:50.436Z,100612.13
2023-01-13T21:58:55.916Z,100610.13
2023-01-13T22:02:24.781Z,100620.91
2023-01-13T22:05:26.851Z,100619.31
2023-01-13T22:08:28.687Z,100630.63
2023-01-13T22:11:32.162Z,100635.31
2023-01-13T22:14:36.154Z,100633.81
2023-01-13T22:17:37.719Z,100630.25
2023-01-13T22:20:41.182Z,100629.81
2023-01-13T22:23:42.874Z,100628.00
2023-01-13T22:26:44.535Z,100611.59
2023-01-13T22:29:47.845Z,100621.22
2023-01-13T22:32:50.008Z,100625.88
2023-01-13T22:35:54.552Z,100626.13
2023-01-13T22:38:56.532Z,100630.34
2023-01-13T22:41:58.354Z,100639.97
2023-01-13T22:45:01.243Z,100640.81
2023-01-13T22:48:02.789Z,100635.47
2023-01-13T22:51:06.560Z,100644.28
2023-01-13T22:54:08.671Z,100650.28
2023-01-13T22:57:10.668Z,100655.81
2023-01-13T23:00:15.207Z,100655.34
2023-01-13T23:03:18.998Z,100658.44
2023-01-13T23:06:22.380Z,100653.03
2023-01-13T23:09:24.135Z,100661.31
2023-01-13T23:12:25.834Z,100654.59
2023-01-13T23:15:28.776Z,100653.47
2023-01-13T23:18:30.838Z,100650.53
2023-01-13T23:21:35.906Z,100654.66
2023-01-13T23:24:37.390Z,100660.25
2023-01-13T23:27:39.117Z,100664.22
2023-01-13T23:30:42.171Z,100667.50
2023-01-13T23:33:44.767Z,100662.88
2023-01-13T23:36:46.452Z,100664.78
2023-01-13T23:39:48.168Z,100665.22
2023-01-13T23:42:49.887Z,100657.03
2023-01-13T23:45:53.324Z,100656.34
2023-01-13T23:48:55.451Z,100663.44
2023-01-13T23:51:57.260Z,100661.59
2023-01-13T23:54:59.274Z,100665.75
2023-01-13T23:58:01.029Z,100654.84
